sensor_id;sensor_type;location;lat;lon;timestamp;temperature;humidity
12761;DHT22;6444;49.742;6.114;2022-10-23T00:01:50;14.80;99.90
12761;DHT22;6444;49.742;6.114;2022-10-23T00:04:17;14.50;99.90
12761;DHT22;6444;49.742;6.114;2022-10-23T00:06:43;14.40;99.90
12761;DHT22;6444;49.742;6.114;2022-10-23T00:09:11;13.90;99.90
12761;DHT22;6444;49.742;6.114;2022-10-23T00:11:37;13.90;99.90
12761;DHT22;6444;49.742;6.114;2022-10-23T00:14:04;14.20;99.90
12761;DHT22;6444;49.742;6.114;2022-10-23T00:16:30;14.20;99.90
12761;DHT22;6444;49.742;6.114;2022-10-23T00:18:57;14.20;99.90
12761;DHT22;6444;49.742;6.114;2022-10-23T00:21:24;14.50;99.90
12761;DHT22;6444;49.742;6.114;2022-10-23T00:23:50;14.80;99.90
12761;DHT22;6444;49.742;6.114;2022-10-23T00:26:17;14.50;99.90
12761;DHT22;6444;49.742;6.114;2022-10-23T00:28:45;14.20;99.90
12761;DHT22;6444;49.742;6.114;2022-10-23T00:31:11;14.20;99.90
12761;DHT22;6444;49.742;6.114;2022-10-23T00:33:37;13.90;99.90
12761;DHT22;6444;49.742;6.114;2022-10-23T00:36:04;13.90;99.90
12761;DHT22;6444;49.742;6.114;2022-10-23T00:38:31;14.00;99.90
12761;DHT22;6444;49.742;6.114;2022-10-23T00:40:57;14.30;99.90
12761;DHT22;6444;49.742;6.114;2022-10-23T00:43:25;14.60;99.90
12761;DHT22;6444;49.742;6.114;2022-10-23T00:45:51;15.10;99.90
12761;DHT22;6444;49.742;6.114;2022-10-23T00:48:18;15.10;99.90
12761;DHT22;6444;49.742;6.114;2022-10-23T00:50:45;15.10;99.90
12761;DHT22;6444;49.742;6.114;2022-10-23T00:53:11;15.00;99.90
12761;DHT22;6444;49.742;6.114;2022-10-23T00:55:38;15.10;99.90
12761;DHT22;6444;49.742;6.114;2022-10-23T00:58:04;15.10;99.90
12761;DHT22;6444;49.742;6.114;2022-10-23T01:00:44;15.10;99.90
12761;DHT22;6444;49.742;6.114;2022-10-23T01:03:06;14.90;99.90
12761;DHT22;6444;49.742;6.114;2022-10-23T01:05:48;14.50;99.90
12761;DHT22;6444;49.742;6.114;2022-10-23T01:08:21;14.70;99.90
12761;DHT22;6444;49.742;6.114;2022-10-23T01:10:46;14.30;99.90
12761;DHT22;6444;49.742;6.114;2022-10-23T01:13:12;14.50;99.90
12761;DHT22;6444;49.742;6.114;2022-10-23T01:15:42;14.70;99.90
12761;DHT22;6444;49.742;6.114;2022-10-23T01:20:50;15.30;99.90
12761;DHT22;6444;49.742;6.114;2022-10-23T01:26:00;15.30;99.90
12761;DHT22;6444;49.742;6.114;2022-10-23T01:28:27;15.40;99.90
12761;DHT22;6444;49.742;6.114;2022-10-23T01:30:51;15.40;99.90
12761;DHT22;6444;49.742;6.114;2022-10-23T01:33:30;15.50;99.90
12761;DHT22;6444;49.742;6.114;2022-10-23T01:36:00;15.40;99.90
12761;DHT22;6444;49.742;6.114;2022-10-23T01:38:43;15.40;99.90
12761;DHT22;6444;49.742;6.114;2022-10-23T01:41:15;15.40;99.90
12761;DHT22;6444;49.742;6.114;2022-10-23T01:43:44;14.80;99.90
12761;DHT22;6444;49.742;6.114;2022-10-23T01:46:11;15.10;99.90
12761;DHT22;6444;49.742;6.114;2022-10-23T01:48:36;15.20;99.90
12761;DHT22;6444;49.742;6.114;2022-10-23T01:51:03;14.90;99.90
12761;DHT22;6444;49.742;6.114;2022-10-23T01:53:30;14.60;99.90
12761;DHT22;6444;49.742;6.114;2022-10-23T01:55:57;14.40;99.90
12761;DHT22;6444;49.742;6.114;2022-10-23T01:58:24;14.00;99.90
12761;DHT22;6444;49.742;6.114;2022-10-23T02:00:50;14.00;99.90
12761;DHT22;6444;49.742;6.114;2022-10-23T02:03:17;13.60;99.90
12761;DHT22;6444;49.742;6.114;2022-10-23T02:05:43;13.00;99.90
12761;DHT22;6444;49.742;6.114;2022-10-23T02:08:10;12.10;99.90
12761;DHT22;6444;49.742;6.114;2022-10-23T02:13:20;13.70;99.90
12761;DHT22;6444;49.742;6.114;2022-10-23T02:16:00;13.70;99.90
12761;DHT22;6444;49.742;6.114;2022-10-23T02:18:31;14.20;99.90
12761;DHT22;6444;49.742;6.114;2022-10-23T02:20:58;14.50;99.90
12761;DHT22;6444;49.742;6.114;2022-10-23T02:23:36;14.00;99.90
12761;DHT22;6444;49.742;6.114;2022-10-23T02:26:17;13.50;99.90
12761;DHT22;6444;49.742;6.114;2022-10-23T02:28:44;13.30;99.90
12761;DHT22;6444;49.742;6.114;2022-10-23T02:31:11;13.40;99.90
12761;DHT22;6444;49.742;6.114;2022-10-23T02:33:36;13.90;99.90
12761;DHT22;6444;49.742;6.114;2022-10-23T02:36:03;14.30;99.90
12761;DHT22;6444;49.742;6.114;2022-10-23T02:38:36;14.60;99.90
12761;DHT22;6444;49.742;6.114;2022-10-23T02:43:44;14.10;99.90
12761;DHT22;6444;49.742;6.114;2022-10-23T02:49:25;14.50;99.90
12761;DHT22;6444;49.742;6.114;2022-10-23T02:51:26;14.60;99.90
12761;DHT22;6444;49.742;6.114;2022-10-23T02:54:04;14.70;99.90
12761;DHT22;6444;49.742;6.114;2022-10-23T02:56:39;14.40;99.90
12761;DHT22;6444;49.742;6.114;2022-10-23T02:59:16;14.40;99.90
12761;DHT22;6444;49.742;6.114;2022-10-23T03:01:46;13.60;99.90
12761;DHT22;6444;49.742;6.114;2022-10-23T03:04:10;13.60;99.90
12761;DHT22;6444;49.742;6.114;2022-10-23T03:06:37;13.90;99.90
12761;DHT22;6444;49.742;6.114;2022-10-23T03:09:05;14.20;99.90
12761;DHT22;6444;49.742;6.114;2022-10-23T03:11:31;13.30;99.90
12761;DHT22;6444;49.742;6.114;2022-10-23T03:13:57;13.30;99.90
12761;DHT22;6444;49.742;6.114;2022-10-23T03:16:24;13.20;99.90
12761;DHT22;6444;49.742;6.114;2022-10-23T03:18:51;13.40;99.90
12761;DHT22;6444;49.742;6.114;2022-10-23T03:21:17;13.90;99.90
12761;DHT22;6444;49.742;6.114;2022-10-23T03:23:44;14.30;99.90
12761;DHT22;6444;49.742;6.114;2022-10-23T03:26:11;14.70;99.90
12761;DHT22;6444;49.742;6.114;2022-10-23T03:28:38;14.60;99.90
12761;DHT22;6444;49.742;6.114;2022-10-23T03:31:05;14.70;99.90
12761;DHT22;6444;49.742;6.114;2022-10-23T03:33:31;14.70;99.90
12761;DHT22;6444;49.742;6.114;2022-10-23T03:35:58;14.80;99.90
12761;DHT22;6444;49.742;6.114;2022-10-23T03:38:24;14.90;99.90
12761;DHT22;6444;49.742;6.114;2022-10-23T03:40:51;14.90;99.90
12761;DHT22;6444;49.742;6.114;2022-10-23T03:43:18;15.00;99.90
12761;DHT22;6444;49.742;6.114;2022-10-23T03:45:44;14.50;99.90
12761;DHT22;6444;49.742;6.114;2022-10-23T03:48:11;14.70;99.90
12761;DHT22;6444;49.742;6.114;2022-10-23T03:50:38;14.50;99.90
12761;DHT22;6444;49.742;6.114;2022-10-23T03:53:04;14.80;99.90
12761;DHT22;6444;49.742;6.114;2022-10-23T03:55:31;15.00;99.90
12761;DHT22;6444;49.742;6.114;2022-10-23T03:57:57;15.00;99.90
12761;DHT22;6444;49.742;6.114;2022-10-23T04:00:24;15.00;99.90
12761;DHT22;6444;49.742;6.114;2022-10-23T04:02:51;15.10;99.90
12761;DHT22;6444;49.742;6.114;2022-10-23T04:05:17;15.10;99.90
12761;DHT22;6444;49.742;6.114;2022-10-23T04:07:45;15.10;99.90
12761;DHT22;6444;49.742;6.114;2022-10-23T04:10:11;15.00;99.90
12761;DHT22;6444;49.742;6.114;2022-10-23T04:12:38;15.00;99.90
12761;DHT22;6444;49.742;6.114;2022-10-23T04:15:05;15.00;99.90
12761;DHT22;6444;49.742;6.114;2022-10-23T04:17:32;14.70;99.90
12761;DHT22;6444;49.742;6.114;2022-10-23T04:19:59;14.60;99.90
12761;DHT22;6444;49.742;6.114;2022-10-23T04:22:25;14.70;99.90
12761;DHT22;6444;49.742;6.114;2022-10-23T04:24:52;14.70;99.90
12761;DHT22;6444;49.742;6.114;2022-10-23T04:27:19;14.70;99.90
12761;DHT22;6444;49.742;6.114;2022-10-23T04:29:45;14.80;99.90
12761;DHT22;6444;49.742;6.114;2022-10-23T04:32:13;14.80;99.90
12761;DHT22;6444;49.742;6.114;2022-10-23T04:34:39;14.70;99.90
12761;DHT22;6444;49.742;6.114;2022-10-23T04:37:06;14.80;99.90
12761;DHT22;6444;49.742;6.114;2022-10-23T04:39:33;14.80;99.90
12761;DHT22;6444;49.742;6.114;2022-10-23T04:41:59;14.80;99.90
12761;DHT22;6444;49.742;6.114;2022-10-23T04:44:26;14.70;99.90
12761;DHT22;6444;49.742;6.114;2022-10-23T04:46:52;13.80;99.90
12761;DHT22;6444;49.742;6.114;2022-10-23T04:49:20;13.80;99.90
12761;DHT22;6444;49.742;6.114;2022-10-23T04:51:46;13.80;99.90
12761;DHT22;6444;49.742;6.114;2022-10-23T04:54:13;13.80;99.90
12761;DHT22;6444;49.742;6.114;2022-10-23T04:56:40;13.80;99.90
12761;DHT22;6444;49.742;6.114;2022-10-23T04:59:06;14.00;99.90
12761;DHT22;6444;49.742;6.114;2022-10-23T05:01:33;13.90;99.90
12761;DHT22;6444;49.742;6.114;2022-10-23T05:04:00;13.30;99.90
12761;DHT22;6444;49.742;6.114;2022-10-23T05:06:26;12.40;99.90
12761;DHT22;6444;49.742;6.114;2022-10-23T05:08:54;12.60;99.90
12761;DHT22;6444;49.742;6.114;2022-10-23T05:11:20;12.50;99.90
12761;DHT22;6444;49.742;6.114;2022-10-23T05:13:47;12.70;99.90
12761;DHT22;6444;49.742;6.114;2022-10-23T05:16:21;13.00;99.90
12761;DHT22;6444;49.742;6.114;2022-10-23T05:18:43;13.00;99.90
12761;DHT22;6444;49.742;6.114;2022-10-23T05:21:18;13.30;99.90
12761;DHT22;6444;49.742;6.114;2022-10-23T05:23:40;13.60;99.90
12761;DHT22;6444;49.742;6.114;2022-10-23T05:26:06;13.70;99.90
12761;DHT22;6444;49.742;6.114;2022-10-23T05:28:33;13.50;99.90
12761;DHT22;6444;49.742;6.114;2022-10-23T05:31:00;13.80;99.90
12761;DHT22;6444;49.742;6.114;2022-10-23T05:33:26;14.10;99.90
12761;DHT22;6444;49.742;6.114;2022-10-23T05:35:53;14.00;99.90
12761;DHT22;6444;49.742;6.114;2022-10-23T05:38:19;14.00;99.90
12761;DHT22;6444;49.742;6.114;2022-10-23T05:40:46;13.90;99.90
12761;DHT22;6444;49.742;6.114;2022-10-23T05:43:13;13.80;99.90
12761;DHT22;6444;49.742;6.114;2022-10-23T05:45:39;13.80;99.90
12761;DHT22;6444;49.742;6.114;2022-10-23T05:48:07;14.00;99.90
12761;DHT22;6444;49.742;6.114;2022-10-23T05:50:36;14.00;99.90
12761;DHT22;6444;49.742;6.114;2022-10-23T05:53:03;14.10;99.90
12761;DHT22;6444;49.742;6.114;2022-10-23T05:55:29;14.20;99.90
12761;DHT22;6444;49.742;6.114;2022-10-23T05:57:56;14.20;99.90
12761;DHT22;6444;49.742;6.114;2022-10-23T06:00:23;14.30;99.90
12761;DHT22;6444;49.742;6.114;2022-10-23T06:02:49;14.00;99.90
12761;DHT22;6444;49.742;6.114;2022-10-23T06:05:16;13.30;99.90
12761;DHT22;6444;49.742;6.114;2022-10-23T06:07:43;13.30;99.90
12761;DHT22;6444;49.742;6.114;2022-10-23T06:10:09;13.60;99.90
12761;DHT22;6444;49.742;6.114;2022-10-23T06:12:36;13.70;99.90
12761;DHT22;6444;49.742;6.114;2022-10-23T06:15:03;13.50;99.90
12761;DHT22;6444;49.742;6.114;2022-10-23T06:17:29;13.90;99.90
12761;DHT22;6444;49.742;6.114;2022-10-23T06:19:56;14.10;99.90
12761;DHT22;6444;49.742;6.114;2022-10-23T06:22:22;14.10;99.90
12761;DHT22;6444;49.742;6.114;2022-10-23T06:24:50;14.30;99.90
12761;DHT22;6444;49.742;6.114;2022-10-23T06:27:16;14.30;99.90
12761;DHT22;6444;49.742;6.114;2022-10-23T06:29:43;14.00;99.90
12761;DHT22;6444;49.742;6.114;2022-10-23T06:32:10;13.70;99.90
12761;DHT22;6444;49.742;6.114;2022-10-23T06:34:36;13.60;99.90
12761;DHT22;6444;49.742;6.114;2022-10-23T06:37:03;13.90;99.90
12761;DHT22;6444;49.742;6.114;2022-10-23T06:39:30;14.50;99.90
12761;DHT22;6444;49.742;6.114;2022-10-23T06:41:57;14.40;99.90
12761;DHT22;6444;49.742;6.114;2022-10-23T06:44:24;14.50;99.90
12761;DHT22;6444;49.742;6.114;2022-10-23T06:46:50;14.20;99.90
12761;DHT22;6444;49.742;6.114;2022-10-23T06:49:17;13.80;99.90
12761;DHT22;6444;49.742;6.114;2022-10-23T06:51:44;14.20;99.90
12761;DHT22;6444;49.742;6.114;2022-10-23T06:54:11;14.20;99.90
12761;DHT22;6444;49.742;6.114;2022-10-23T06:56:37;14.00;99.90
12761;DHT22;6444;49.742;6.114;2022-10-23T06:59:04;13.10;99.90
12761;DHT22;6444;49.742;6.114;2022-10-23T07:01:31;13.30;99.90
12761;DHT22;6444;49.742;6.114;2022-10-23T07:03:57;13.30;99.90
12761;DHT22;6444;49.742;6.114;2022-10-23T07:06:25;13.60;99.90
12761;DHT22;6444;49.742;6.114;2022-10-23T07:08:51;13.60;99.90
12761;DHT22;6444;49.742;6.114;2022-10-23T07:11:18;13.40;99.90
12761;DHT22;6444;49.742;6.114;2022-10-23T07:13:45;13.50;99.90
12761;DHT22;6444;49.742;6.114;2022-10-23T07:16:12;13.80;99.90
12761;DHT22;6444;49.742;6.114;2022-10-23T07:18:38;14.00;99.90
12761;DHT22;6444;49.742;6.114;2022-10-23T07:21:07;15.00;99.90
12761;DHT22;6444;49.742;6.114;2022-10-23T07:23:34;14.90;99.90
12761;DHT22;6444;49.742;6.114;2022-10-23T07:26:13;15.30;99.90
12761;DHT22;6444;49.742;6.114;2022-10-23T07:28:42;15.60;99.90
12761;DHT22;6444;49.742;6.114;2022-10-23T07:31:08;15.40;99.90
12761;DHT22;6444;49.742;6.114;2022-10-23T07:33:35;15.70;99.90
12761;DHT22;6444;49.742;6.114;2022-10-23T07:36:05;16.00;99.90
12761;DHT22;6444;49.742;6.114;2022-10-23T07:38:31;16.10;99.90
12761;DHT22;6444;49.742;6.114;2022-10-23T07:40:58;16.10;99.90
12761;DHT22;6444;49.742;6.114;2022-10-23T07:43:25;15.30;99.90
12761;DHT22;6444;49.742;6.114;2022-10-23T07:45:51;15.40;99.90
12761;DHT22;6444;49.742;6.114;2022-10-23T07:48:18;15.20;99.90
12761;DHT22;6444;49.742;6.114;2022-10-23T07:50:44;15.30;99.90
12761;DHT22;6444;49.742;6.114;2022-10-23T07:53:15;14.40;99.90
12761;DHT22;6444;49.742;6.114;2022-10-23T07:55:37;13.60;99.90
12761;DHT22;6444;49.742;6.114;2022-10-23T07:58:04;13.00;99.90
12761;DHT22;6444;49.742;6.114;2022-10-23T08:00:31;12.80;99.90
12761;DHT22;6444;49.742;6.114;2022-10-23T08:02:57;12.70;99.90
12761;DHT22;6444;49.742;6.114;2022-10-23T08:05:24;12.80;99.90
12761;DHT22;6444;49.742;6.114;2022-10-23T08:07:51;13.00;99.90
12761;DHT22;6444;49.742;6.114;2022-10-23T08:10:18;13.30;99.90
12761;DHT22;6444;49.742;6.114;2022-10-23T08:12:45;13.30;99.90
12761;DHT22;6444;49.742;6.114;2022-10-23T08:15:11;13.60;99.90
12761;DHT22;6444;49.742;6.114;2022-10-23T08:17:38;13.90;99.90
12761;DHT22;6444;49.742;6.114;2022-10-23T08:20:05;14.50;99.90
12761;DHT22;6444;49.742;6.114;2022-10-23T08:22:31;16.00;99.90
12761;DHT22;6444;49.742;6.114;2022-10-23T08:24:58;17.10;99.90
12761;DHT22;6444;49.742;6.114;2022-10-23T08:27:24;17.20;99.90
12761;DHT22;6444;49.742;6.114;2022-10-23T08:29:51;17.90;99.90
12761;DHT22;6444;49.742;6.114;2022-10-23T08:32:18;18.50;99.90
12761;DHT22;6444;49.742;6.114;2022-10-23T08:34:45;19.80;99.90
12761;DHT22;6444;49.742;6.114;2022-10-23T08:37:12;19.70;99.90
12761;DHT22;6444;49.742;6.114;2022-10-23T08:39:38;20.00;99.90
12761;DHT22;6444;49.742;6.114;2022-10-23T08:42:05;20.10;99.90
12761;DHT22;6444;49.742;6.114;2022-10-23T08:49:45;19.80;99.90
12761;DHT22;6444;49.742;6.114;2022-10-23T08:52:35;19.10;99.90
12761;DHT22;6444;49.742;6.114;2022-10-23T08:55:41;19.10;99.90
12761;DHT22;6444;49.742;6.114;2022-10-23T08:57:46;17.80;99.90
12761;DHT22;6444;49.742;6.114;2022-10-23T09:00:15;16.20;99.90
12761;DHT22;6444;49.742;6.114;2022-10-23T09:02:45;16.20;99.90
12761;DHT22;6444;49.742;6.114;2022-10-23T09:05:12;16.40;99.90
12761;DHT22;6444;49.742;6.114;2022-10-23T09:10:33;17.20;99.90
12761;DHT22;6444;49.742;6.114;2022-10-23T09:15:46;16.80;99.90
12761;DHT22;6444;49.742;6.114;2022-10-23T09:18:11;16.70;99.90
12761;DHT22;6444;49.742;6.114;2022-10-23T09:20:40;16.80;99.90
12761;DHT22;6444;49.742;6.114;2022-10-23T09:23:07;17.50;99.90
12761;DHT22;6444;49.742;6.114;2022-10-23T09:25:34;18.10;99.90
12761;DHT22;6444;49.742;6.114;2022-10-23T09:28:00;18.90;99.90
12761;DHT22;6444;49.742;6.114;2022-10-23T09:30:29;19.50;99.90
12761;DHT22;6444;49.742;6.114;2022-10-23T09:32:53;20.00;99.90
12761;DHT22;6444;49.742;6.114;2022-10-23T09:35:23;20.00;99.90
12761;DHT22;6444;49.742;6.114;2022-10-23T09:37:49;20.70;99.90
12761;DHT22;6444;49.742;6.114;2022-10-23T09:40:17;21.70;99.90
12761;DHT22;6444;49.742;6.114;2022-10-23T09:42:55;22.70;99.90
12761;DHT22;6444;49.742;6.114;2022-10-23T09:45:29;23.60;99.90
12761;DHT22;6444;49.742;6.114;2022-10-23T09:48:10;23.50;99.90
12761;DHT22;6444;49.742;6.114;2022-10-23T09:50:36;24.40;99.90
12761;DHT22;6444;49.742;6.114;2022-10-23T09:53:02;25.30;99.90
12761;DHT22;6444;49.742;6.114;2022-10-23T09:55:29;26.40;99.90
12761;DHT22;6444;49.742;6.114;2022-10-23T09:57:55;27.90;99.90
12761;DHT22;6444;49.742;6.114;2022-10-23T10:00:24;28.40;99.90
12761;DHT22;6444;49.742;6.114;2022-10-23T10:02:57;28.80;99.90
12761;DHT22;6444;49.742;6.114;2022-10-23T10:05:26;28.60;99.90
12761;DHT22;6444;49.742;6.114;2022-10-23T10:07:55;28.30;99.90
12761;DHT22;6444;49.742;6.114;2022-10-23T10:10:21;28.00;99.90
12761;DHT22;6444;49.742;6.114;2022-10-23T10:12:58;26.10;99.90
12761;DHT22;6444;49.742;6.114;2022-10-23T10:15:26;24.40;99.90
12761;DHT22;6444;49.742;6.114;2022-10-23T10:20:32;23.60;99.90
12761;DHT22;6444;49.742;6.114;2022-10-23T10:23:24;23.10;99.90
12761;DHT22;6444;49.742;6.114;2022-10-23T10:28:21;22.10;99.90
12761;DHT22;6444;49.742;6.114;2022-10-23T10:36:26;22.00;99.90
12761;DHT22;6444;49.742;6.114;2022-10-23T10:38:49;21.80;99.90
12761;DHT22;6444;49.742;6.114;2022-10-23T10:41:36;21.50;99.90
12761;DHT22;6444;49.742;6.114;2022-10-23T10:49:28;20.90;99.90
12761;DHT22;6444;49.742;6.114;2022-10-23T10:54:56;21.10;99.90
12761;DHT22;6444;49.742;6.114;2022-10-23T10:57:27;21.00;99.90
12761;DHT22;6444;49.742;6.114;2022-10-23T10:59:52;21.10;99.90
12761;DHT22;6444;49.742;6.114;2022-10-23T11:02:29;21.40;99.90
12761;DHT22;6444;49.742;6.114;2022-10-23T11:05:08;21.70;99.90
12761;DHT22;6444;49.742;6.114;2022-10-23T11:07:34;21.40;99.90
12761;DHT22;6444;49.742;6.114;2022-10-23T11:10:02;20.70;99.90
12761;DHT22;6444;49.742;6.114;2022-10-23T11:12:26;20.50;99.90
12761;DHT22;6444;49.742;6.114;2022-10-23T11:14:53;20.40;99.90
12761;DHT22;6444;49.742;6.114;2022-10-23T11:17:23;20.20;99.90
12761;DHT22;6444;49.742;6.114;2022-10-23T11:20:17;20.10;99.90
12761;DHT22;6444;49.742;6.114;2022-10-23T11:28:18;20.40;99.90
12761;DHT22;6444;49.742;6.114;2022-10-23T11:31:02;20.40;99.90
12761;DHT22;6444;49.742;6.114;2022-10-23T11:33:33;20.30;99.90
12761;DHT22;6444;49.742;6.114;2022-10-23T11:36:16;20.40;99.90
12761;DHT22;6444;49.742;6.114;2022-10-23T11:38:45;20.60;99.90
12761;DHT22;6444;49.742;6.114;2022-10-23T11:41:19;20.60;99.90
12761;DHT22;6444;49.742;6.114;2022-10-23T11:43:54;21.00;99.90
12761;DHT22;6444;49.742;6.114;2022-10-23T11:48:52;21.20;99.90
12761;DHT22;6444;49.742;6.114;2022-10-23T11:51:37;21.30;99.90
12761;DHT22;6444;49.742;6.114;2022-10-23T11:54:05;20.90;99.90
12761;DHT22;6444;49.742;6.114;2022-10-23T11:56:30;20.80;99.90
12761;DHT22;6444;49.742;6.114;2022-10-23T11:58:57;21.30;99.90
12761;DHT22;6444;49.742;6.114;2022-10-23T12:01:36;21.00;99.90
12761;DHT22;6444;49.742;6.114;2022-10-23T12:06:51;20.90;99.90
12761;DHT22;6444;49.742;6.114;2022-10-23T12:09:39;21.30;99.90
12761;DHT22;6444;49.742;6.114;2022-10-23T12:14:31;20.90;99.90
12761;DHT22;6444;49.742;6.114;2022-10-23T12:16:56;21.10;99.90
12761;DHT22;6444;49.742;6.114;2022-10-23T12:19:24;21.40;99.90
12761;DHT22;6444;49.742;6.114;2022-10-23T12:21:52;21.50;99.90
12761;DHT22;6444;49.742;6.114;2022-10-23T12:25:23;21.10;99.90
12761;DHT22;6444;49.742;6.114;2022-10-23T12:27:17;21.20;99.90
12761;DHT22;6444;49.742;6.114;2022-10-23T12:29:47;21.30;99.90
12761;DHT22;6444;49.742;6.114;2022-10-23T12:35:35;21.00;99.90
12761;DHT22;6444;49.742;6.114;2022-10-23T12:38:09;21.00;99.90
12761;DHT22;6444;49.742;6.114;2022-10-23T12:40:33;21.10;99.90
12761;DHT22;6444;49.742;6.114;2022-10-23T12:42:59;21.00;99.90
12761;DHT22;6444;49.742;6.114;2022-10-23T12:45:29;21.40;99.90
12761;DHT22;6444;49.742;6.114;2022-10-23T12:47:55;21.50;99.90
12761;DHT22;6444;49.742;6.114;2022-10-23T12:50:26;21.60;99.90
12761;DHT22;6444;49.742;6.114;2022-10-23T12:52:52;21.50;99.90
12761;DHT22;6444;49.742;6.114;2022-10-23T12:55:19;21.50;99.90
12761;DHT22;6444;49.742;6.114;2022-10-23T12:57:45;21.50;99.90
12761;DHT22;6444;49.742;6.114;2022-10-23T13:00:17;21.60;99.90
12761;DHT22;6444;49.742;6.114;2022-10-23T13:02:42;21.50;99.90
12761;DHT22;6444;49.742;6.114;2022-10-23T13:05:10;21.80;99.90
12761;DHT22;6444;49.742;6.114;2022-10-23T13:07:36;21.70;99.90
12761;DHT22;6444;49.742;6.114;2022-10-23T13:10:02;21.60;99.90
12761;DHT22;6444;49.742;6.114;2022-10-23T13:12:32;21.80;99.90
12761;DHT22;6444;49.742;6.114;2022-10-23T13:17:37;22.30;99.90
12761;DHT22;6444;49.742;6.114;2022-10-23T13:20:27;22.40;99.90
12761;DHT22;6444;49.742;6.114;2022-10-23T13:25:36;22.00;99.90
12761;DHT22;6444;49.742;6.114;2022-10-23T13:30:35;22.40;99.90
12761;DHT22;6444;49.742;6.114;2022-10-23T13:33:00;22.90;99.90
12761;DHT22;6444;49.742;6.114;2022-10-23T13:35:27;22.30;99.90
12761;DHT22;6444;49.742;6.114;2022-10-23T13:37:54;22.40;99.90
12761;DHT22;6444;49.742;6.114;2022-10-23T13:40:22;22.30;99.90
12761;DHT22;6444;49.742;6.114;2022-10-23T13:42:48;22.40;99.90
12761;DHT22;6444;49.742;6.114;2022-10-23T13:45:18;22.30;99.90
12761;DHT22;6444;49.742;6.114;2022-10-23T13:47:41;22.20;99.90
12761;DHT22;6444;49.742;6.114;2022-10-23T13:50:08;22.50;99.90
12761;DHT22;6444;49.742;6.114;2022-10-23T13:52:35;22.50;99.90
12761;DHT22;6444;49.742;6.114;2022-10-23T13:55:02;22.90;99.90
12761;DHT22;6444;49.742;6.114;2022-10-23T13:57:28;23.10;99.90
12761;DHT22;6444;49.742;6.114;2022-10-23T13:59:55;23.60;99.90
12761;DHT22;6444;49.742;6.114;2022-10-23T14:02:22;23.80;99.90
12761;DHT22;6444;49.742;6.114;2022-10-23T14:04:49;23.80;99.90
12761;DHT22;6444;49.742;6.114;2022-10-23T14:07:16;23.90;99.90
12761;DHT22;6444;49.742;6.114;2022-10-23T14:09:42;23.90;99.90
12761;DHT22;6444;49.742;6.114;2022-10-23T14:12:09;23.50;99.90
12761;DHT22;6444;49.742;6.114;2022-10-23T14:14:35;23.10;99.90
12761;DHT22;6444;49.742;6.114;2022-10-23T14:17:02;22.90;99.90
12761;DHT22;6444;49.742;6.114;2022-10-23T14:19:29;23.10;99.90
12761;DHT22;6444;49.742;6.114;2022-10-23T14:21:55;23.50;99.90
12761;DHT22;6444;49.742;6.114;2022-10-23T14:24:22;23.30;99.90
12761;DHT22;6444;49.742;6.114;2022-10-23T14:26:49;22.80;99.90
12761;DHT22;6444;49.742;6.114;2022-10-23T14:29:16;22.80;99.90
12761;DHT22;6444;49.742;6.114;2022-10-23T14:31:43;22.70;99.90
12761;DHT22;6444;49.742;6.114;2022-10-23T14:34:12;22.80;99.90
12761;DHT22;6444;49.742;6.114;2022-10-23T14:36:39;23.00;99.90
12761;DHT22;6444;49.742;6.114;2022-10-23T14:39:06;23.30;99.90
12761;DHT22;6444;49.742;6.114;2022-10-23T14:41:33;23.40;99.90
12761;DHT22;6444;49.742;6.114;2022-10-23T14:44:00;23.40;99.90
12761;DHT22;6444;49.742;6.114;2022-10-23T14:46:26;23.10;99.90
12761;DHT22;6444;49.742;6.114;2022-10-23T14:48:53;23.10;99.90
12761;DHT22;6444;49.742;6.114;2022-10-23T14:51:24;23.50;99.90
12761;DHT22;6444;49.742;6.114;2022-10-23T14:53:59;23.50;99.90
12761;DHT22;6444;49.742;6.114;2022-10-23T14:56:23;23.50;99.90
12761;DHT22;6444;49.742;6.114;2022-10-23T14:58:49;22.90;99.90
12761;DHT22;6444;49.742;6.114;2022-10-23T15:01:16;22.80;99.90
12761;DHT22;6444;49.742;6.114;2022-10-23T15:03:42;23.20;99.90
12761;DHT22;6444;49.742;6.114;2022-10-23T15:06:09;23.60;99.90
12761;DHT22;6444;49.742;6.114;2022-10-23T15:08:36;22.80;99.90
12761;DHT22;6444;49.742;6.114;2022-10-23T15:11:06;22.80;99.90
12761;DHT22;6444;49.742;6.114;2022-10-23T15:13:33;22.70;99.90
12761;DHT22;6444;49.742;6.114;2022-10-23T15:16:04;22.30;99.90
12761;DHT22;6444;49.742;6.114;2022-10-23T15:18:29;22.20;99.90
12761;DHT22;6444;49.742;6.114;2022-10-23T15:20:56;22.40;99.90
12761;DHT22;6444;49.742;6.114;2022-10-23T15:23:23;22.60;99.90
12761;DHT22;6444;49.742;6.114;2022-10-23T15:25:56;22.70;99.90
12761;DHT22;6444;49.742;6.114;2022-10-23T15:28:22;22.70;99.90
12761;DHT22;6444;49.742;6.114;2022-10-23T15:30:48;22.10;99.90
12761;DHT22;6444;49.742;6.114;2022-10-23T15:33:15;21.10;99.90
12761;DHT22;6444;49.742;6.114;2022-10-23T15:35:42;20.30;99.90
12761;DHT22;6444;49.742;6.114;2022-10-23T15:38:08;20.30;99.90
12761;DHT22;6444;49.742;6.114;2022-10-23T15:40:35;21.10;99.90
12761;DHT22;6444;49.742;6.114;2022-10-23T15:43:02;21.70;99.90
12761;DHT22;6444;49.742;6.114;2022-10-23T15:45:28;22.10;99.90
12761;DHT22;6444;49.742;6.114;2022-10-23T15:47:55;21.80;99.90
12761;DHT22;6444;49.742;6.114;2022-10-23T15:50:22;21.70;99.90
12761;DHT22;6444;49.742;6.114;2022-10-23T15:52:48;21.80;99.90
12761;DHT22;6444;49.742;6.114;2022-10-23T15:55:15;21.50;99.90
12761;DHT22;6444;49.742;6.114;2022-10-23T15:57:41;21.30;99.90
12761;DHT22;6444;49.742;6.114;2022-10-23T16:00:09;21.00;99.90
12761;DHT22;6444;49.742;6.114;2022-10-23T16:02:35;20.90;99.90
12761;DHT22;6444;49.742;6.114;2022-10-23T16:05:01;19.60;99.90
12761;DHT22;6444;49.742;6.114;2022-10-23T16:07:29;17.60;99.90
12761;DHT22;6444;49.742;6.114;2022-10-23T16:09:55;17.50;99.90
12761;DHT22;6444;49.742;6.114;2022-10-23T16:12:22;17.20;99.90
12761;DHT22;6444;49.742;6.114;2022-10-23T16:14:49;17.30;99.90
12761;DHT22;6444;49.742;6.114;2022-10-23T16:17:15;17.50;99.90
12761;DHT22;6444;49.742;6.114;2022-10-23T16:19:42;17.50;99.90
12761;DHT22;6444;49.742;6.114;2022-10-23T16:22:09;17.40;99.90
12761;DHT22;6444;49.742;6.114;2022-10-23T16:24:35;17.60;99.90
12761;DHT22;6444;49.742;6.114;2022-10-23T16:27:02;17.20;99.90
12761;DHT22;6444;49.742;6.114;2022-10-23T16:29:28;16.90;99.90
12761;DHT22;6444;49.742;6.114;2022-10-23T16:31:55;16.50;99.90
12761;DHT22;6444;49.742;6.114;2022-10-23T16:34:22;16.30;99.90
12761;DHT22;6444;49.742;6.114;2022-10-23T16:36:48;16.30;99.90
12761;DHT22;6444;49.742;6.114;2022-10-23T16:39:15;16.30;99.90
12761;DHT22;6444;49.742;6.114;2022-10-23T16:41:42;16.00;99.90
12761;DHT22;6444;49.742;6.114;2022-10-23T16:44:08;16.20;99.90
12761;DHT22;6444;49.742;6.114;2022-10-23T16:46:35;16.20;99.90
12761;DHT22;6444;49.742;6.114;2022-10-23T16:49:01;16.00;99.90
12761;DHT22;6444;49.742;6.114;2022-10-23T16:51:28;16.20;99.90
12761;DHT22;6444;49.742;6.114;2022-10-23T16:53:55;16.40;99.90
12761;DHT22;6444;49.742;6.114;2022-10-23T16:56:22;16.30;99.90
12761;DHT22;6444;49.742;6.114;2022-10-23T16:58:48;15.90;99.90